Time;durP1;ratioP1;P1;durP2;ratioP2;P2;SDS_P1;SDS_P2;PMS_P1;PMS_P2;Temp;Humidity;BMP_temperature;BMP_pressure;BME280_temperature;BME280_humidity;BME280_pressure;Samples;Min_cycle;Max_cycle;Signal;HPM_P1;HPM_P2
2023/11/29 00:02:21;;;;;;;2.95;0.60;;;;;;;3.42;100.00;99299.06;5019462;28;20037;-85
2023/11/29 00:04:47;;;;;;;1.30;0.40;;;;;;;3.23;100.00;99292.06;5019261;28;20033;-86
2023/11/29 00:07:13;;;;;;;3.03;1.02;;;;;;;3.18;100.00;99290.81;5025553;28;20484;-85
2023/11/29 00:09:38;;;;;;;2.83;0.68;;;;;;;3.49;100.00;99292.47;5012654;28;20038;-85
2023/11/29 00:12:04;;;;;;;5.50;0.85;;;;;;;3.73;100.00;99299.91;5022715;28;20036;-85
2023/11/29 00:14:30;;;;;;;3.38;0.70;;;;;;;3.83;100.00;99305.09;5023950;28;20038;-85
2023/11/29 00:16:56;;;;;;;0.88;0.30;;;;;;;3.79;100.00;99299.38;5033819;28;20067;-86
2023/11/29 00:19:22;;;;;;;2.95;0.90;;;;;;;3.70;100.00;99301.94;5038134;28;20036;-86
2023/11/29 00:21:47;;;;;;;1.50;0.45;;;;;;;3.66;100.00;99307.34;5029578;28;20060;-86
2023/11/29 00:24:13;;;;;;;1.27;0.30;;;;;;;3.65;100.00;99308.28;5025594;28;20418;-85
2023/11/29 00:26:38;;;;;;;3.22;0.40;;;;;;;3.65;100.00;99313.44;5027509;28;20042;-85
2023/11/29 00:29:04;;;;;;;2.33;0.50;;;;;;;3.66;100.00;99311.69;5031097;28;20021;-85
2023/11/29 00:31:29;;;;;;;0.70;0.30;;;;;;;3.65;100.00;99322.94;5031857;28;20025;-85
2023/11/29 00:33:55;;;;;;;5.40;0.38;;;;;;;3.66;100.00;99327.13;5029731;28;20396;-86
2023/11/29 00:36:20;;;;;;;2.15;0.52;;;;;;;3.65;100.00;99321.16;5033999;28;21086;-86
2023/11/29 00:38:45;;;;;;;1.75;0.20;;;;;;;3.63;100.00;99335.13;5030879;28;20466;-85
2023/11/29 00:41:11;;;;;;;0.82;0.30;;;;;;;3.70;100.00;99336.25;5028381;28;20034;-86
2023/11/29 00:43:37;;;;;;;0.77;0.20;;;;;;;3.81;100.00;99343.88;5013067;28;20049;-85
2023/11/29 00:46:03;;;;;;;2.97;0.43;;;;;;;3.87;100.00;99348.50;5035349;28;20129;-85
2023/11/29 00:48:30;;;;;;;1.52;0.28;;;;;;;3.85;100.00;99345.25;5026834;28;20128;-86
2023/11/29 00:50:56;;;;;;;1.05;0.30;;;;;;;3.76;100.00;99351.19;5025401;28;20053;-85
2023/11/29 00:53:21;;;;;;;1.58;0.30;;;;;;;3.71;100.00;99357.66;5014693;28;20099;-85
2023/11/29 00:55:47;;;;;;;0.50;0.20;;;;;;;3.61;100.00;99360.19;5027070;28;20084;-85
2023/11/29 00:58:12;;;;;;;2.38;0.43;;;;;;;3.62;100.00;99354.91;5027021;28;20021;-85
2023/11/29 01:00:38;;;;;;;1.25;0.20;;;;;;;3.62;100.00;99365.22;5028065;28;20033;-85
2023/11/29 01:03:03;;;;;;;1.75;0.20;;;;;;;3.64;99.60;99365.91;5028459;28;20025;-85
2023/11/29 01:05:29;;;;;;;1.50;0.30;;;;;;;3.70;97.55;99356.03;5034140;28;20079;-85
2023/11/29 01:07:56;;;;;;;0.40;0.10;;;;;;;3.74;96.52;99368.53;5008835;28;20088;-85
2023/11/29 01:10:21;;;;;;;2.58;0.20;;;;;;;3.77;96.54;99372.63;5022001;28;20040;-86
2023/11/29 01:12:47;;;;;;;0.70;0.10;;;;;;;3.77;94.20;99377.78;5028246;28;20022;-86
2023/11/29 01:15:13;;;;;;;1.38;0.20;;;;;;;3.75;94.25;99374.50;5019224;28;20084;-86
2023/11/29 01:17:38;;;;;;;0.38;0.10;;;;;;;3.78;92.22;99380.19;5016484;28;20108;-85
2023/11/29 01:20:05;;;;;;;1.75;0.20;;;;;;;3.78;92.58;99379.41;5025412;28;20129;-86
2023/11/29 01:22:30;;;;;;;0.65;0.20;;;;;;;3.86;91.36;99376.97;5021553;28;20101;-85
2023/11/29 01:24:56;;;;;;;0.65;0.10;;;;;;;3.89;90.05;99384.44;5021704;28;20469;-86
2023/11/29 01:27:21;;;;;;;0.47;0.10;;;;;;;3.94;89.67;99392.63;5022001;28;20501;-86
2023/11/29 01:29:46;;;;;;;0.50;0.10;;;;;;;3.92;88.02;99391.94;5022814;28;20038;-85
2023/11/29 01:32:12;;;;;;;1.08;0.10;;;;;;;3.88;89.26;99393.13;5027818;28;20079;-86
2023/11/29 01:34:41;;;;;;;2.65;0.13;;;;;;;3.73;91.06;99404.72;5013757;28;20492;-86
2023/11/29 01:37:06;;;;;;;1.10;0.13;;;;;;;3.62;88.77;99406.41;5025398;28;20041;-86
2023/11/29 01:39:32;;;;;;;1.55;0.20;;;;;;;3.65;89.94;99413.91;5009435;28;20038;-86
2023/11/29 01:41:57;;;;;;;1.10;0.20;;;;;;;3.63;89.42;99420.13;5012441;28;20026;-86
2023/11/29 01:44:23;;;;;;;0.13;0.10;;;;;;;3.70;87.55;99410.94;5023927;28;20036;-86
2023/11/29 01:46:48;;;;;;;0.73;0.10;;;;;;;3.79;84.12;99417.06;5024906;28;20044;-85
2023/11/29 01:49:18;;;;;;;0.77;0.08;;;;;;;3.84;82.62;99420.91;4990707;28;20136;-85
2023/11/29 01:51:44;;;;;;;0.22;0.10;;;;;;;3.87;85.79;99430.97;5021246;28;20045;-85
2023/11/29 01:54:10;;;;;;;1.23;0.20;;;;;;;3.44;91.36;99428.50;5025756;28;20048;-86
2023/11/29 01:56:35;;;;;;;2.75;0.40;;;;;;;3.22;93.38;99433.78;5025301;28;20484;-86
2023/11/29 01:59:01;;;;;;;1.30;0.17;;;;;;;3.05;94.54;99424.00;5028956;28;20057;-86
2023/11/29 02:01:26;;;;;;;2.65;0.30;;;;;;;2.92;94.41;99432.69;5030032;28;20052;-86
2023/11/29 02:03:52;;;;;;;0.68;0.10;;;;;;;2.96;93.88;99434.09;5029361;28;20030;-86
2023/11/29 02:06:18;;;;;;;1.00;0.20;;;;;;;3.05;91.30;99429.16;5009253;28;20037;-86
2023/11/29 02:08:45;;;;;;;1.25;0.25;;;;;;;3.17;91.93;99425.59;5021274;28;20033;-86
2023/11/29 02:11:16;;;;;;;2.15;0.28;;;;;;;3.05;91.75;99421.44;5032021;28;20388;-86
2023/11/29 02:13:41;;;;;;;0.95;0.10;;;;;;;2.97;94.71;99424.59;5021813;28;20776;-86
2023/11/29 02:16:07;;;;;;;0.50;0.10;;;;;;;2.84;96.32;99429.88;5028809;28;20029;-85
2023/11/29 02:18:32;;;;;;;0.43;0.00;;;;;;;2.62;98.93;99433.34;5029286;28;20112;-86
2023/11/29 02:20:58;;;;;;;0.45;0.10;;;;;;;2.44;100.00;99432.19;5035950;28;20037;-85
2023/11/29 02:23:32;;;;;;;0.95;0.20;;;;;;;2.24;100.00;99440.63;5029004;28;20037;-86
2023/11/29 02:25:57;;;;;;;0.93;0.20;;;;;;;2.05;100.00;99435.22;5035077;28;20025;-86
2023/11/29 02:28:22;;;;;;;0.50;0.15;;;;;;;2.14;99.13;99443.06;5019330;28;20473;-86
2023/11/29 02:30:48;;;;;;;0.30;0.10;;;;;;;2.70;88.76;99443.03;5035987;28;20033;-85
2023/11/29 02:33:13;;;;;;;0.25;0.10;;;;;;;2.99;86.89;99448.47;5038436;28;20105;-86
2023/11/29 02:35:39;;;;;;;0.30;0.00;;;;;;;3.13;83.34;99453.34;5034952;28;20037;-86
2023/11/29 02:38:04;;;;;;;0.75;0.00;;;;;;;3.17;83.64;99443.63;5020765;28;20033;-86
2023/11/29 02:40:29;;;;;;;0.80;0.10;;;;;;;3.24;85.25;99442.19;5030215;28;20347;-86
2023/11/29 02:42:55;;;;;;;0.38;0.10;;;;;;;3.03;87.03;99456.75;5031115;28;20540;-86
2023/11/29 02:45:20;;;;;;;0.10;0.00;;;;;;;2.99;85.54;99458.75;5033154;28;20120;-85
2023/11/29 02:47:46;;;;;;;0.05;0.00;;;;;;;3.01;83.34;99451.72;5032277;28;20057;-86
2023/11/29 02:50:12;;;;;;;0.63;0.10;;;;;;;3.29;78.88;99456.34;5035153;28;20032;-86
2023/11/29 02:52:37;;;;;;;0.57;0.05;;;;;;;3.71;74.93;99447.84;5029109;28;20481;-85
2023/11/29 02:55:03;;;;;;;0.93;0.00;;;;;;;4.03;75.56;99455.47;5039516;28;20037;-85
2023/11/29 02:57:28;;;;;;;0.10;0.00;;;;;;;4.12;73.70;99463.25;5036138;28;20040;-86
2023/11/29 02:59:53;;;;;;;0.17;0.00;;;;;;;4.44;68.01;99470.03;5032412;28;20055;-86
2023/11/29 03:02:19;;;;;;;0.10;0.00;;;;;;;4.79;66.39;99470.44;5038396;28;20029;-86
2023/11/29 03:04:44;;;;;;;0.20;0.00;;;;;;;4.83;67.43;99471.81;5036520;28;20037;-87
2023/11/29 03:07:10;;;;;;;1.88;0.00;;;;;;;4.87;65.14;99473.16;5035203;28;20037;-86
2023/11/29 03:09:35;;;;;;;0.35;0.00;;;;;;;5.02;66.04;99467.63;5029393;28;20029;-86
2023/11/29 03:12:01;;;;;;;0.10;0.00;;;;;;;4.92;72.14;99470.19;5035779;28;20466;-86
2023/11/29 03:14:26;;;;;;;0.20;0.00;;;;;;;4.57;77.48;99481.78;5028504;28;20050;-87
2023/11/29 03:16:53;;;;;;;0.00;0.00;;;;;;;3.91;81.28;99483.88;5016718;28;20026;-86
2023/11/29 03:19:19;;;;;;;0.30;0.00;;;;;;;3.56;81.25;99483.38;5034107;28;20439;-86
2023/11/29 03:21:44;;;;;;;0.10;0.00;;;;;;;3.43;82.16;99482.72;5028539;28;20037;-86
2023/11/29 03:24:10;;;;;;;1.40;0.10;;;;;;;3.02;85.02;99488.56;5035921;28;20037;-87
2023/11/29 03:26:41;;;;;;;0.35;0.10;;;;;;;2.67;89.22;99489.56;5015442;28;20037;-86
2023/11/29 03:29:07;;;;;;;4.20;0.00;;;;;;;2.38;91.09;99486.63;5034335;28;20045;-86
2023/11/29 03:31:32;;;;;;;0.75;0.05;;;;;;;2.16;93.36;99490.03;5033845;28;20036;-85
2023/11/29 03:33:58;;;;;;;0.10;0.00;;;;;;;2.00;95.59;99495.47;5037157;28;20025;-86
2023/11/29 03:36:23;;;;;;;0.65;0.00;;;;;;;1.86;96.52;99500.00;5030989;28;20087;-86
2023/11/29 03:38:48;;;;;;;0.30;0.10;;;;;;;1.71;98.16;99503.69;5022774;28;20041;-86
2023/11/29 03:41:14;;;;;;;3.08;0.10;;;;;;;1.55;98.94;99504.81;5012429;28;20032;-86
2023/11/29 03:43:40;;;;;;;0.32;0.10;;;;;;;1.47;100.00;99506.28;5027073;28;20056;-87
2023/11/29 03:46:05;;;;;;;0.63;0.00;;;;;;;1.42;100.00;99519.44;5032625;28;20521;-87
2023/11/29 03:48:31;;;;;;;0.28;0.10;;;;;;;1.32;100.00;99521.03;5028741;28;20175;-86
2023/11/29 03:50:57;;;;;;;0.55;0.10;;;;;;;1.22;100.00;99525.19;5020158;28;20114;-86
2023/11/29 03:53:22;;;;;;;0.10;0.05;;;;;;;1.12;100.00;99521.63;5032566;28;20033;-86
2023/11/29 03:55:47;;;;;;;0.10;0.00;;;;;;;1.06;100.00;99529.75;5016808;28;20029;-86
2023/11/29 03:58:13;;;;;;;0.20;0.10;;;;;;;0.99;100.00;99535.28;5029875;28;20032;-86
2023/11/29 04:00:38;;;;;;;0.30;0.10;;;;;;;0.84;100.00;99533.81;5027856;28;20135;-86
2023/11/29 04:03:04;;;;;;;0.38;0.10;;;;;;;0.83;100.00;99546.75;5027846;28;20076;-86
2023/11/29 04:05:29;;;;;;;0.22;0.10;;;;;;;0.82;100.00;99538.22;5035484;28;20025;-87
2023/11/29 04:07:55;;;;;;;0.40;0.00;;;;;;;0.82;100.00;99540.78;5029881;28;20033;-86
2023/11/29 04:10:20;;;;;;;6.53;0.10;;;;;;;0.82;100.00;99540.78;5026148;28;20331;-87
2023/11/29 04:12:46;;;;;;;1.10;0.10;;;;;;;0.81;100.00;99544.28;5030525;28;20469;-86
2023/11/29 04:15:11;;;;;;;0.30;0.10;;;;;;;0.79;100.00;99551.25;5015665;28;20515;-86
2023/11/29 04:17:36;;;;;;;0.38;0.10;;;;;;;0.75;100.00;99546.44;5020893;28;20039;-85
2023/11/29 04:20:04;;;;;;;0.43;0.10;;;;;;;0.77;100.00;99544.59;5020149;28;20040;-86
2023/11/29 04:22:29;;;;;;;0.57;0.15;;;;;;;0.86;100.00;99556.78;5027203;28;20033;-86
2023/11/29 04:24:55;;;;;;;0.28;0.10;;;;;;;0.88;100.00;99558.31;5021395;28;20033;-86
2023/11/29 04:27:20;;;;;;;0.20;0.10;;;;;;;0.81;100.00;99559.66;5021694;28;20037;-86
2023/11/29 04:29:45;;;;;;;0.73;0.10;;;;;;;0.66;100.00;99561.50;5023269;28;20029;-86
2023/11/29 04:32:11;;;;;;;0.40;0.10;;;;;;;0.55;100.00;99573.41;5026155;28;20025;-86
2023/11/29 04:34:36;;;;;;;0.65;0.30;;;;;;;0.48;100.00;99567.06;5007925;28;20033;-86
2023/11/29 04:37:02;;;;;;;0.20;0.10;;;;;;;0.48;100.00;99567.06;5030621;28;20119;-86
2023/11/29 04:39:27;;;;;;;0.63;0.13;;;;;;;0.43;100.00;99562.25;5012505;28;20150;-86
2023/11/29 04:41:53;;;;;;;2.00;0.20;;;;;;;0.43;100.00;99561.44;5026252;28;20029;-86
2023/11/29 04:44:18;;;;;;;0.38;0.10;;;;;;;0.51;100.00;99565.09;5025873;28;20029;-85
2023/11/29 04:46:44;;;;;;;0.95;0.10;;;;;;;0.52;100.00;99563.38;5024136;28;20044;-86
2023/11/29 04:49:09;;;;;;;0.68;0.20;;;;;;;0.46;100.00;99568.94;5012903;28;20518;-86
2023/11/29 04:51:35;;;;;;;3.03;0.20;;;;;;;0.42;100.00;99567.47;5023461;28;20076;-86
2023/11/29 04:54:00;;;;;;;0.30;0.10;;;;;;;0.42;100.00;99578.56;5027063;28;20037;-86
2023/11/29 04:56:26;;;;;;;5.10;0.20;;;;;;;0.35;100.00;99571.38;5024134;28;20076;-86
2023/11/29 04:58:51;;;;;;;1.23;0.20;;;;;;;0.29;100.00;99583.66;5010877;28;20120;-86
2023/11/29 05:01:17;;;;;;;0.57;0.20;;;;;;;0.21;100.00;99580.78;5020664;28;20045;-85
2023/11/29 05:03:42;;;;;;;0.50;0.17;;;;;;;0.20;100.00;99584.25;5035292;28;20030;-86
2023/11/29 05:06:12;;;;;;;0.82;0.30;;;;;;;0.21;100.00;99583.34;5028051;28;20124;-86
2023/11/29 05:08:38;;;;;;;1.58;0.28;;;;;;;0.24;100.00;99592.56;5027715;28;20049;-86
2023/11/29 05:11:07;;;;;;;0.63;0.28;;;;;;;0.30;100.00;99587.88;5019775;28;20048;-86
2023/11/29 05:13:32;;;;;;;0.70;0.20;;;;;;;0.27;100.00;99600.88;5014477;28;20065;-86
2023/11/29 05:15:58;;;;;;;0.80;0.40;;;;;;;0.19;100.00;99597.16;5021279;28;20473;-86
2023/11/29 05:18:24;;;;;;;1.27;0.32;;;;;;;0.14;100.00;99600.03;5022405;28;20058;-86
2023/11/29 05:20:49;;;;;;;2.97;0.50;;;;;;;0.09;100.00;99602.06;5021931;28;20536;-85
2023/11/29 05:23:15;;;;;;;1.85;0.35;;;;;;;0.08;100.00;99599.59;5025199;28;20032;-85
2023/11/29 05:25:40;;;;;;;0.50;0.20;;;;;;;0.11;100.00;99602.78;5026692;28;20132;-85
2023/11/29 05:28:06;;;;;;;0.60;0.25;;;;;;;0.06;100.00;99602.25;5024990;28;20489;-85
2023/11/29 05:30:32;;;;;;;0.85;0.38;;;;;;;0.10;100.00;99608.81;5017384;28;20507;-86
2023/11/29 05:32:57;;;;;;;3.85;0.45;;;;;;;0.10;100.00;99613.13;5027388;28;20052;-85
2023/11/29 05:35:23;;;;;;;1.13;0.40;;;;;;;0.11;100.00;99620.72;5023901;28;20048;-85
2023/11/29 05:37:48;;;;;;;1.88;0.50;;;;;;;0.13;100.00;99615.50;5026119;28;20151;-85
2023/11/29 05:40:14;;;;;;;1.00;0.52;;;;;;;0.08;100.00;99615.78;5024577;28;20030;-85
2023/11/29 05:42:40;;;;;;;0.55;0.35;;;;;;;0.00;100.00;99618.84;5018237;28;20022;-86
2023/11/29 05:45:08;;;;;;;4.13;0.32;;;;;;;-0.09;100.00;99621.19;5009198;28;20429;-85
2023/11/29 05:47:35;;;;;;;5.43;0.40;;;;;;;-0.11;100.00;99621.28;5020640;28;20037;-85
2023/11/29 05:50:01;;;;;;;1.85;0.63;;;;;;;-0.09;100.00;99623.75;5009523;28;20068;-85
2023/11/29 05:52:27;;;;;;;1.00;0.43;;;;;;;-0.06;100.00;99628.69;5017584;28;20036;-86
2023/11/29 05:54:52;;;;;;;0.75;0.25;;;;;;;-0.02;100.00;99635.25;5010397;28;20033;-85
2023/11/29 05:57:18;;;;;;;0.80;0.50;;;;;;;-0.06;100.00;99632.06;5012663;28;20151;-86
2023/11/29 05:59:43;;;;;;;3.85;0.70;;;;;;;-0.12;100.00;99641.88;5016246;28;20120;-85
2023/11/29 06:02:09;;;;;;;3.10;0.65;;;;;;;-0.19;100.00;99644.00;5026613;28;20116;-86
2023/11/29 06:04:34;;;;;;;4.65;0.80;;;;;;;-0.22;100.00;99651.03;5027527;28;20128;-86
2023/11/29 06:07:00;;;;;;;1.05;0.30;;;;;;;-0.24;100.00;99663.13;5029497;28;20044;-86
2023/11/29 06:09:30;;;;;;;2.38;0.55;;;;;;;-0.25;100.00;99664.84;5019117;28;20030;-85
2023/11/29 06:11:56;;;;;;;3.55;0.40;;;;;;;-0.22;100.00;99664.66;5024569;28;20040;-85
2023/11/29 06:14:27;;;;;;;3.65;0.57;;;;;;;-0.27;100.00;99673.53;5030136;28;20049;-85
2023/11/29 06:16:53;;;;;;;0.60;0.30;;;;;;;-0.36;100.00;99670.63;5017771;28;20113;-85
2023/11/29 06:19:20;;;;;;;1.13;0.45;;;;;;;-0.36;100.00;99677.50;5009508;28;20474;-86
2023/11/29 06:21:46;;;;;;;5.80;0.43;;;;;;;-0.32;100.00;99680.69;5005565;28;20033;-85
2023/11/29 06:24:12;;;;;;;5.03;0.65;;;;;;;-0.29;100.00;99688.19;5021071;28;20029;-85
2023/11/29 06:26:38;;;;;;;4.82;0.30;;;;;;;-0.34;100.00;99694.41;5010913;28;20037;-85
2023/11/29 06:29:04;;;;;;;1.88;0.40;;;;;;;-0.34;100.00;99706.38;5018702;28;20065;-85
2023/11/29 06:31:31;;;;;;;6.07;0.40;;;;;;;-0.34;100.00;99707.19;5030517;28;20150;-85
2023/11/29 06:33:57;;;;;;;1.48;0.50;;;;;;;-0.34;100.00;99712.31;5018809;28;20037;-85
2023/11/29 06:36:23;;;;;;;1.25;0.22;;;;;;;-0.30;100.00;99712.13;5017088;28;20549;-86
2023/11/29 06:38:48;;;;;;;0.90;0.40;;;;;;;-0.35;100.00;99715.78;5012811;28;20125;-85
2023/11/29 06:41:14;;;;;;;2.85;0.45;;;;;;;-0.36;100.00;99714.16;5023272;28;20069;-85
2023/11/29 06:43:39;;;;;;;2.80;0.77;;;;;;;-0.32;100.00;99724.19;5012846;28;20052;-85
2023/11/29 06:46:05;;;;;;;0.95;0.45;;;;;;;-0.29;100.00;99719.72;5013832;28;20041;-85
2023/11/29 06:48:31;;;;;;;0.98;0.40;;;;;;;-0.28;100.00;99730.78;5015806;28;20513;-85
2023/11/29 06:51:00;;;;;;;1.13;0.22;;;;;;;-0.27;100.00;99729.84;5014427;28;20409;-86
2023/11/29 06:53:28;;;;;;;0.75;0.28;;;;;;;-0.23;100.00;99737.25;5025818;28;20037;-86
2023/11/29 06:55:55;;;;;;;2.03;0.30;;;;;;;-0.16;100.00;99745.41;5012446;28;20037;-86
2023/11/29 06:58:21;;;;;;;1.15;0.40;;;;;;;-0.12;100.00;99742.56;5026015;28;20040;-86
2023/11/29 07:00:46;;;;;;;5.18;0.30;;;;;;;-0.13;100.00;99742.66;5019965;28;20112;-86
2023/11/29 07:03:12;;;;;;;5.82;0.20;;;;;;;-0.11;100.00;99753.63;5017389;28;20032;-86
2023/11/29 07:05:38;;;;;;;9.60;2.33;;;;;;;-0.12;100.00;99757.91;5025070;28;20037;-86
2023/11/29 07:08:04;;;;;;;16.23;3.63;;;;;;;-0.08;100.00;99763.66;5012007;28;20477;-86
2023/11/29 07:10:30;;;;;;;10.57;1.13;;;;;;;0.00;100.00;99756.34;5026473;28;20120;-86
2023/11/29 07:12:56;;;;;;;3.67;0.70;;;;;;;0.06;100.00;99755.94;5016734;28;20045;-87
2023/11/29 07:15:21;;;;;;;2.00;0.73;;;;;;;0.14;100.00;99760.59;5021956;28;20034;-86
2023/11/29 07:17:47;;;;;;;3.97;0.88;;;;;;;0.22;100.00;99764.31;5011488;28;20029;-86
2023/11/29 07:20:12;;;;;;;3.75;0.70;;;;;;;0.26;100.00;99768.34;5008875;28;20048;-86
2023/11/29 07:22:38;;;;;;;2.83;0.88;;;;;;;0.24;100.00;99770.16;5023649;28;20033;-87
2023/11/29 07:25:04;;;;;;;1.30;0.50;;;;;;;0.28;100.00;99774.19;5028147;28;20034;-86
2023/11/29 07:27:30;;;;;;;1.38;0.60;;;;;;;0.40;100.00;99775.16;5024880;28;20456;-85
2023/11/29 07:29:55;;;;;;;2.33;0.90;;;;;;;0.46;100.00;99776.53;5023121;28;20042;-86
2023/11/29 07:32:22;;;;;;;3.20;0.43;;;;;;;0.51;100.00;99782.97;5025326;28;20051;-86
2023/11/29 07:34:51;;;;;;;3.05;0.65;;;;;;;0.57;100.00;99789.44;5026301;28;20040;-86
2023/11/29 07:37:20;;;;;;;9.27;0.60;;;;;;;0.60;100.00;99791.81;5020934;28;20026;-86
2023/11/29 07:39:46;;;;;;;1.65;0.40;;;;;;;0.67;100.00;99793.06;5027593;28;20037;-86
2023/11/29 07:42:12;;;;;;;3.33;0.50;;;;;;;0.81;100.00;99787.91;5028164;28;20288;-85
2023/11/29 07:44:38;;;;;;;2.88;0.70;;;;;;;0.83;100.00;99791.19;5028275;28;20029;-87
2023/11/29 07:47:04;;;;;;;1.40;0.47;;;;;;;0.89;100.00;99788.22;5030050;28;20037;-87
2023/11/29 07:49:31;;;;;;;4.05;0.80;;;;;;;0.93;100.00;99794.81;5020530;28;20057;-86
2023/11/29 07:51:56;;;;;;;6.47;0.82;;;;;;;1.07;100.00;99795.63;5023695;28;20047;-86
2023/11/29 07:54:22;;;;;;;4.72;0.68;;;;;;;1.16;100.00;99792.44;5021954;28;20527;-86
2023/11/29 07:56:47;;;;;;;5.05;0.82;;;;;;;1.22;100.00;99795.44;5029419;28;20474;-86
2023/11/29 07:59:14;;;;;;;1.90;0.50;;;;;;;1.28;100.00;99802.72;5030252;28;20093;-86
2023/11/29 08:01:39;;;;;;;4.85;0.90;;;;;;;1.37;100.00;99803.88;5023299;28;20034;-86
2023/11/29 08:04:05;;;;;;;4.47;0.95;;;;;;;1.45;100.00;99801.59;5006568;28;20040;-85
2023/11/29 08:06:31;;;;;;;4.03;1.50;;;;;;;1.51;100.00;99806.31;4998223;28;20053;-86
2023/11/29 08:08:57;;;;;;;21.02;2.10;;;;;;;1.55;100.00;99815.47;5027619;28;20095;-87
2023/11/29 08:11:22;;;;;;;3.28;1.17;;;;;;;1.60;100.00;99802.31;5023816;28;20034;-86
2023/11/29 08:13:49;;;;;;;2.92;1.08;;;;;;;1.82;100.00;99809.41;5016205;28;24621;-85
2023/11/29 08:16:15;;;;;;;7.43;1.23;;;;;;;1.96;100.00;99811.81;5015692;28;20040;-86
2023/11/29 08:18:40;;;;;;;2.92;1.00;;;;;;;2.04;100.00;99817.25;5010023;28;20033;-87
2023/11/29 08:21:06;;;;;;;5.85;0.90;;;;;;;2.10;100.00;99819.41;5023116;28;20381;-86
2023/11/29 08:23:31;;;;;;;3.40;0.80;;;;;;;2.20;100.00;99814.44;5020850;28;20072;-87
2023/11/29 08:25:57;;;;;;;3.28;0.70;;;;;;;2.31;100.00;99820.47;5027621;28;20124;-87
2023/11/29 08:28:23;;;;;;;2.72;0.80;;;;;;;2.48;100.00;99821.84;5000707;28;20038;-86
2023/11/29 08:30:48;;;;;;;3.65;1.27;;;;;;;2.58;100.00;99825.41;5026267;28;20578;-87
2023/11/29 08:33:14;;;;;;;3.72;0.38;;;;;;;2.74;100.00;99825.13;5018214;28;20492;-86
2023/11/29 08:35:41;;;;;;;3.55;0.32;;;;;;;2.87;100.00;99832.78;5022209;28;20113;-86
2023/11/29 08:38:06;;;;;;;1.52;0.30;;;;;;;2.87;100.00;99830.19;5026863;28;20096;-86
2023/11/29 08:40:34;;;;;;;3.28;0.52;;;;;;;3.02;100.00;99841.97;5010453;28;20037;-86
2023/11/29 08:43:00;;;;;;;3.58;0.50;;;;;;;3.20;100.00;99842.38;5022060;28;20041;-86
2023/11/29 08:45:26;;;;;;;2.58;0.88;;;;;;;3.31;99.47;99844.97;5031691;28;20083;-85
2023/11/29 08:47:52;;;;;;;2.30;0.55;;;;;;;3.51;97.59;99846.88;5008777;28;20034;-86
2023/11/29 08:50:17;;;;;;;2.50;0.60;;;;;;;3.69;95.04;99838.72;5009527;28;20025;-85
2023/11/29 08:52:44;;;;;;;2.67;0.70;;;;;;;3.84;94.02;99843.50;5009504;28;20034;-86
2023/11/29 08:55:09;;;;;;;4.00;0.40;;;;;;;3.99;91.04;99851.84;5012919;28;20060;-86
2023/11/29 08:57:35;;;;;;;2.15;0.50;;;;;;;4.19;88.99;99853.72;5024666;28;20064;-85
2023/11/29 09:00:01;;;;;;;2.15;0.20;;;;;;;4.52;87.99;99850.25;5022024;28;20374;-86
2023/11/29 09:02:29;;;;;;;0.80;0.20;;;;;;;4.47;89.51;99848.97;5021013;28;20032;-86
2023/11/29 09:04:55;;;;;;;2.83;0.50;;;;;;;4.45;87.52;99853.44;5020728;28;20083;-86
2023/11/29 09:07:21;;;;;;;2.42;0.30;;;;;;;4.49;88.45;99857.41;5027094;28;20449;-86
2023/11/29 09:09:47;;;;;;;1.77;0.20;;;;;;;4.68;81.07;99860.19;5025933;28;20470;-86
2023/11/29 09:12:16;;;;;;;0.55;0.20;;;;;;;4.88;79.73;99863.75;5024615;28;20021;-86
2023/11/29 09:14:43;;;;;;;0.50;0.10;;;;;;;4.94;83.67;99865.84;5025820;28;20048;-86
2023/11/29 09:17:09;;;;;;;0.52;0.10;;;;;;;4.99;74.85;99874.84;5027559;28;20041;-86
2023/11/29 09:19:35;;;;;;;1.77;0.10;;;;;;;5.10;82.81;99875.75;5025658;28;20447;-85
2023/11/29 09:22:03;;;;;;;0.68;0.10;;;;;;;5.00;81.80;99866.16;5027372;28;20420;-86
2023/11/29 09:24:29;;;;;;;1.42;0.10;;;;;;;4.98;81.05;99873.22;5010665;28;20041;-86
2023/11/29 09:26:54;;;;;;;0.65;0.10;;;;;;;5.03;76.30;99877.19;5027756;28;20041;-85
2023/11/29 09:29:21;;;;;;;0.82;0.10;;;;;;;5.26;83.12;99887.28;5023569;28;20022;-86
2023/11/29 09:31:47;;;;;;;3.10;0.10;;;;;;;5.26;80.21;99881.31;5007852;28;20045;-87
2023/11/29 09:34:13;;;;;;;4.65;0.10;;;;;;;5.48;81.24;99881.19;5029084;28;20033;-86
2023/11/29 09:36:38;;;;;;;1.73;0.20;;;;;;;5.66;80.11;99876.28;5035046;28;20033;-86
2023/11/29 09:39:12;;;;;;;0.73;0.10;;;;;;;5.60;82.42;99876.78;5032330;28;20044;-87
2023/11/29 09:41:38;;;;;;;0.57;0.10;;;;;;;5.53;80.78;99878.25;5018826;28;20041;-85
2023/11/29 09:44:04;;;;;;;0.50;0.10;;;;;;;5.57;79.66;99883.03;5033095;28;20108;-86
2023/11/29 09:46:30;;;;;;;0.38;0.08;;;;;;;5.65;77.80;99878.06;5031931;28;20033;-85
2023/11/29 09:48:59;;;;;;;0.57;0.10;;;;;;;5.67;80.83;99870.16;5031771;28;20060;-85
2023/11/29 09:51:25;;;;;;;0.45;0.20;;;;;;;5.55;82.43;99872.00;5029209;28;20042;-86
2023/11/29 09:53:50;;;;;;;0.70;0.20;;;;;;;5.44;83.24;99873.81;5032056;28;20067;-85
2023/11/29 09:56:16;;;;;;;1.00;0.10;;;;;;;5.35;83.06;99872.81;5032750;28;20128;-85
2023/11/29 09:58:41;;;;;;;1.65;0.25;;;;;;;5.37;82.94;99863.16;5031938;28;20040;-85
2023/11/29 10:01:06;;;;;;;0.95;0.20;;;;;;;5.55;82.31;99874.59;5031429;28;20516;-85
2023/11/29 10:03:34;;;;;;;0.47;0.20;;;;;;;5.54;82.52;99872.94;5024433;28;20056;-85
2023/11/29 10:06:02;;;;;;;0.60;0.15;;;;;;;5.48;82.75;99876.03;5024822;28;20037;-85
2023/11/29 10:08:28;;;;;;;0.95;0.20;;;;;;;5.39;83.30;99871.63;5032440;28;20047;-86
2023/11/29 10:10:54;;;;;;;0.20;0.00;;;;;;;5.33;82.43;99874.69;5025281;28;20385;-85
2023/11/29 10:13:20;;;;;;;0.55;0.05;;;;;;;5.31;82.68;99877.41;5026071;28;20042;-86
2023/11/29 10:15:49;;;;;;;1.00;0.08;;;;;;;5.37;82.87;99876.09;5028418;28;20048;-86
2023/11/29 10:18:16;;;;;;;0.38;0.10;;;;;;;5.60;80.86;99874.22;5031796;28;20091;-86
2023/11/29 10:20:50;;;;;;;0.52;0.00;;;;;;;5.88;74.64;99875.28;5031474;28;20065;-85
2023/11/29 10:23:15;;;;;;;1.23;0.32;;;;;;;6.10;78.30;99877.75;5027857;28;20051;-86
2023/11/29 10:25:43;;;;;;;0.60;0.10;;;;;;;6.23;77.80;99878.31;5021917;28;20568;-86
2023/11/29 10:28:09;;;;;;;0.38;0.05;;;;;;;6.25;76.90;99876.41;5023895;28;20087;-85
2023/11/29 10:30:34;;;;;;;0.80;0.10;;;;;;;6.28;72.30;99878.75;5010808;28;20446;-85
2023/11/29 10:33:03;;;;;;;0.10;0.00;;;;;;;6.50;71.18;99874.31;5024761;28;20072;-85
2023/11/29 10:35:30;;;;;;;1.38;0.15;;;;;;;6.72;69.91;99871.50;5025811;28;20036;-85
2023/11/29 10:38:04;;;;;;;0.50;0.10;;;;;;;6.79;74.56;99880.34;5022797;28;20530;-85
2023/11/29 10:40:29;;;;;;;0.32;0.10;;;;;;;6.60;76.96;99870.00;5024246;28;20116;-86
2023/11/29 10:42:59;;;;;;;0.55;0.10;;;;;;;6.42;74.36;99877.56;5024599;28;20121;-85
2023/11/29 10:45:25;;;;;;;0.20;0.10;;;;;;;6.69;72.85;99863.16;5025677;28;20044;-85
2023/11/29 10:47:58;;;;;;;0.00;0.00;;;;;;;6.86;66.07;99870.28;5023439;28;20037;-86
2023/11/29 10:50:25;;;;;;;0.17;0.00;;;;;;;7.04;67.62;99865.25;5012771;28;20033;-85
2023/11/29 10:52:51;;;;;;;0.10;0.00;;;;;;;6.98;72.17;99859.66;5017452;28;20504;-86
2023/11/29 11:14:46;;;;;;;0.40;0.00;;;;;;;7.27;65.00;99858.81;5062051;27;1320127;-69
2023/11/29 11:17:14;;;;;;;0.30;0.00;;;;;;;7.23;63.71;99860.06;5107077;28;20024;-68
2023/11/29 11:19:41;;;;;;;0.10;0.00;;;;;;;7.19;67.03;99861.28;5101020;28;20107;-68
2023/11/29 11:22:06;;;;;;;1.05;0.10;;;;;;;7.15;62.38;99858.16;5107224;28;20070;-67
2023/11/29 11:25:05;;;;;;;0.28;0.05;;;;;;;7.31;60.13;99860.19;5090985;28;20035;-69
2023/11/29 11:27:32;;;;;;;0.80;0.00;;;;;;;7.29;66.41;99852.56;5101168;28;20402;-68
2023/11/29 11:29:58;;;;;;;0.50;0.10;;;;;;;7.23;68.82;99852.28;5104811;28;20023;-68
2023/11/29 11:32:42;;;;;;;0.45;0.10;;;;;;;7.13;67.87;99857.47;5105788;28;20480;-71
2023/11/29 11:35:16;;;;;;;0.30;0.10;;;;;;;7.07;67.94;99857.22;5105286;28;20365;-70
2023/11/29 11:37:47;;;;;;;0.50;0.10;;;;;;;6.95;70.70;99852.16;5104652;28;20388;-68
2023/11/29 11:40:13;;;;;;;0.85;0.10;;;;;;;6.99;71.80;99850.94;5083798;28;20428;-68
2023/11/29 11:42:42;;;;;;;0.10;0.00;;;;;;;7.09;72.04;99855.31;5105019;28;20016;-68
2023/11/29 11:45:09;;;;;;;0.30;0.10;;;;;;;7.05;72.46;99848.75;5102473;28;20097;-68
2023/11/29 11:47:39;;;;;;;0.60;0.10;;;;;;;6.96;72.38;99847.81;5101878;28;20086;-69
2023/11/29 11:50:05;;;;;;;0.50;0.10;;;;;;;6.90;71.37;99851.75;5090444;28;20400;-68
2023/11/29 11:52:31;;;;;;;0.80;0.05;;;;;;;6.94;70.79;99853.13;5106444;28;20023;-68